sensor_id;sensor_type;location;lat;lon;timestamp;P1;durP1;ratioP1;P2;durP2;ratioP2
39896;SDS011;25567;48.276;14.242;2022-09-21T00:00:42;3.35;;;1.88;;
39896;SDS011;25567;48.276;14.242;2022-09-21T00:03:10;6.88;;;2.08;;
39896;SDS011;25567;48.276;14.242;2022-09-21T00:05:37;6.38;;;1.85;;
39896;SDS011;25567;48.276;14.242;2022-09-21T00:08:04;3.47;;;1.88;;
39896;SDS011;25567;48.276;14.242;2022-09-21T00:10:31;3.15;;;1.70;;
39896;SDS011;25567;48.276;14.242;2022-09-21T00:12:59;5.50;;;1.70;;
39896;SDS011;25567;48.276;14.242;2022-09-21T00:15:28;5.32;;;1.88;;
39896;SDS011;25567;48.276;14.242;2022-09-21T00:17:57;2.60;;;2.03;;
39896;SDS011;25567;48.276;14.242;2022-09-21T00:20:25;4.65;;;1.88;;
39896;SDS011;25567;48.276;14.242;2022-09-21T00:22:53;6.25;;;2.85;;
39896;SDS011;25567;48.276;14.242;2022-09-21T00:25:19;7.45;;;1.88;;
39896;SDS011;25567;48.276;14.242;2022-09-21T00:27:46;3.85;;;1.50;;
39896;SDS011;25567;48.276;14.242;2022-09-21T00:30:17;4.15;;;1.95;;
39896;SDS011;25567;48.276;14.242;2022-09-21T00:32:44;4.60;;;2.00;;
39896;SDS011;25567;48.276;14.242;2022-09-21T00:35:10;6.32;;;3.10;;
39896;SDS011;25567;48.276;14.242;2022-09-21T00:37:37;11.98;;;3.85;;
39896;SDS011;25567;48.276;14.242;2022-09-21T00:40:03;18.05;;;4.50;;
39896;SDS011;25567;48.276;14.242;2022-09-21T00:42:32;14.93;;;5.95;;
39896;SDS011;25567;48.276;14.242;2022-09-21T00:44:59;17.65;;;6.80;;
39896;SDS011;25567;48.276;14.242;2022-09-21T00:47:27;14.27;;;5.55;;
39896;SDS011;25567;48.276;14.242;2022-09-21T00:50:13;10.73;;;5.43;;
39896;SDS011;25567;48.276;14.242;2022-09-21T00:52:44;11.13;;;5.32;;
39896;SDS011;25567;48.276;14.242;2022-09-21T00:55:16;9.80;;;4.93;;
39896;SDS011;25567;48.276;14.242;2022-09-21T00:57:49;12.77;;;5.55;;
39896;SDS011;25567;48.276;14.242;2022-09-21T01:00:20;11.40;;;5.03;;
39896;SDS011;25567;48.276;14.242;2022-09-21T01:02:46;10.60;;;5.13;;
39896;SDS011;25567;48.276;14.242;2022-09-21T01:05:13;24.52;;;7.15;;
39896;SDS011;25567;48.276;14.242;2022-09-21T01:07:41;14.77;;;5.68;;
39896;SDS011;25567;48.276;14.242;2022-09-21T01:10:13;15.05;;;6.35;;
39896;SDS011;25567;48.276;14.242;2022-09-21T01:15:30;14.55;;;7.28;;
39896;SDS011;25567;48.276;14.242;2022-09-21T01:18:18;15.70;;;7.03;;
39896;SDS011;25567;48.276;14.242;2022-09-21T01:21:06;16.05;;;6.78;;
39896;SDS011;25567;48.276;14.242;2022-09-21T01:32:13;12.25;;;6.05;;
39896;SDS011;25567;48.276;14.242;2022-09-21T01:35:04;12.25;;;5.30;;
39896;SDS011;25567;48.276;14.242;2022-09-21T01:37:40;10.45;;;4.60;;
39896;SDS011;25567;48.276;14.242;2022-09-21T01:40:16;11.15;;;4.25;;
39896;SDS011;25567;48.276;14.242;2022-09-21T01:42:47;9.68;;;4.63;;
39896;SDS011;25567;48.276;14.242;2022-09-21T01:45:18;7.75;;;3.33;;
39896;SDS011;25567;48.276;14.242;2022-09-21T01:47:51;5.78;;;3.13;;
39896;SDS011;25567;48.276;14.242;2022-09-21T01:50:21;8.55;;;3.30;;
39896;SDS011;25567;48.276;14.242;2022-09-21T01:55:25;8.63;;;3.60;;
39896;SDS011;25567;48.276;14.242;2022-09-21T01:58:00;6.93;;;3.70;;
39896;SDS011;25567;48.276;14.242;2022-09-21T02:00:49;5.82;;;3.10;;
39896;SDS011;25567;48.276;14.242;2022-09-21T02:06:03;8.20;;;2.70;;
39896;SDS011;25567;48.276;14.242;2022-09-21T02:08:31;4.20;;;2.17;;
39896;SDS011;25567;48.276;14.242;2022-09-21T02:11:00;5.20;;;2.15;;
39896;SDS011;25567;48.276;14.242;2022-09-21T02:13:29;9.32;;;2.70;;
39896;SDS011;25567;48.276;14.242;2022-09-21T02:18:51;3.13;;;2.33;;
39896;SDS011;25567;48.276;14.242;2022-09-21T02:21:30;4.65;;;2.10;;
39896;SDS011;25567;48.276;14.242;2022-09-21T02:24:08;3.10;;;2.03;;
39896;SDS011;25567;48.276;14.242;2022-09-21T02:26:49;5.65;;;2.10;;
39896;SDS011;25567;48.276;14.242;2022-09-21T02:29:24;3.38;;;2.22;;
39896;SDS011;25567;48.276;14.242;2022-09-21T02:32:02;7.10;;;2.25;;
39896;SDS011;25567;48.276;14.242;2022-09-21T02:34:42;4.28;;;2.38;;
39896;SDS011;25567;48.276;14.242;2022-09-21T02:37:16;6.88;;;2.45;;
39896;SDS011;25567;48.276;14.242;2022-09-21T02:39:53;7.03;;;2.67;;
39896;SDS011;25567;48.276;14.242;2022-09-21T02:42:30;3.50;;;2.15;;
39896;SDS011;25567;48.276;14.242;2022-09-21T02:47:35;6.38;;;2.10;;
39896;SDS011;25567;48.276;14.242;2022-09-21T02:52:38;7.03;;;2.40;;
39896;SDS011;25567;48.276;14.242;2022-09-21T02:55:08;7.32;;;2.17;;
39896;SDS011;25567;48.276;14.242;2022-09-21T02:57:36;5.35;;;2.40;;
39896;SDS011;25567;48.276;14.242;2022-09-21T03:00:04;6.38;;;2.08;;
39896;SDS011;25567;48.276;14.242;2022-09-21T03:02:39;8.93;;;2.30;;
39896;SDS011;25567;48.276;14.242;2022-09-21T03:05:08;5.13;;;1.95;;
39896;SDS011;25567;48.276;14.242;2022-09-21T03:07:36;5.40;;;2.03;;
39896;SDS011;25567;48.276;14.242;2022-09-21T03:10:04;2.85;;;2.00;;
39896;SDS011;25567;48.276;14.242;2022-09-21T03:12:33;5.22;;;2.20;;
39896;SDS011;25567;48.276;14.242;2022-09-21T03:15:00;3.65;;;2.15;;
39896;SDS011;25567;48.276;14.242;2022-09-21T03:17:26;5.00;;;2.15;;
39896;SDS011;25567;48.276;14.242;2022-09-21T03:19:53;6.63;;;2.20;;
39896;SDS011;25567;48.276;14.242;2022-09-21T03:22:21;3.20;;;1.80;;
39896;SDS011;25567;48.276;14.242;2022-09-21T03:24:48;2.83;;;1.60;;
39896;SDS011;25567;48.276;14.242;2022-09-21T03:27:17;3.90;;;1.80;;
39896;SDS011;25567;48.276;14.242;2022-09-21T03:29:45;5.03;;;1.90;;
39896;SDS011;25567;48.276;14.242;2022-09-21T03:32:12;5.80;;;1.80;;
39896;SDS011;25567;48.276;14.242;2022-09-21T03:34:41;3.03;;;1.95;;
39896;SDS011;25567;48.276;14.242;2022-09-21T03:37:08;7.13;;;1.90;;
39896;SDS011;25567;48.276;14.242;2022-09-21T03:39:35;4.80;;;1.90;;
39896;SDS011;25567;48.276;14.242;2022-09-21T03:42:02;6.47;;;2.00;;
39896;SDS011;25567;48.276;14.242;2022-09-21T03:44:29;3.00;;;1.90;;
39896;SDS011;25567;48.276;14.242;2022-09-21T03:46:56;6.10;;;2.05;;
39896;SDS011;25567;48.276;14.242;2022-09-21T03:49:23;5.00;;;2.17;;
39896;SDS011;25567;48.276;14.242;2022-09-21T03:51:50;7.70;;;3.90;;
39896;SDS011;25567;48.276;14.242;2022-09-21T03:54:16;6.20;;;2.97;;
39896;SDS011;25567;48.276;14.242;2022-09-21T03:56:43;6.03;;;2.70;;
39896;SDS011;25567;48.276;14.242;2022-09-21T03:59:10;7.25;;;2.38;;
39896;SDS011;25567;48.276;14.242;2022-09-21T04:01:39;4.20;;;2.40;;
39896;SDS011;25567;48.276;14.242;2022-09-21T04:04:06;3.70;;;2.05;;
39896;SDS011;25567;48.276;14.242;2022-09-21T04:06:33;6.25;;;2.15;;
39896;SDS011;25567;48.276;14.242;2022-09-21T04:09:00;6.38;;;2.20;;
39896;SDS011;25567;48.276;14.242;2022-09-21T04:11:27;4.82;;;2.08;;
39896;SDS011;25567;48.276;14.242;2022-09-21T04:13:55;4.95;;;1.77;;
39896;SDS011;25567;48.276;14.242;2022-09-21T04:16:23;3.67;;;2.17;;
39896;SDS011;25567;48.276;14.242;2022-09-21T04:18:50;6.95;;;2.05;;
39896;SDS011;25567;48.276;14.242;2022-09-21T04:21:17;4.05;;;1.77;;
39896;SDS011;25567;48.276;14.242;2022-09-21T04:23:44;2.55;;;1.58;;
39896;SDS011;25567;48.276;14.242;2022-09-21T04:26:19;5.20;;;1.92;;
39896;SDS011;25567;48.276;14.242;2022-09-21T04:28:48;4.45;;;2.00;;
39896;SDS011;25567;48.276;14.242;2022-09-21T04:31:15;6.78;;;2.22;;
39896;SDS011;25567;48.276;14.242;2022-09-21T04:33:42;5.72;;;2.78;;
39896;SDS011;25567;48.276;14.242;2022-09-21T04:36:08;5.05;;;2.53;;
39896;SDS011;25567;48.276;14.242;2022-09-21T04:38:35;8.18;;;3.05;;
39896;SDS011;25567;48.276;14.242;2022-09-21T04:41:02;6.30;;;3.22;;
39896;SDS011;25567;48.276;14.242;2022-09-21T04:43:28;6.00;;;2.65;;
39896;SDS011;25567;48.276;14.242;2022-09-21T04:45:55;5.20;;;2.60;;
39896;SDS011;25567;48.276;14.242;2022-09-21T04:48:22;6.32;;;2.30;;
39896;SDS011;25567;48.276;14.242;2022-09-21T04:50:49;7.82;;;2.60;;
39896;SDS011;25567;48.276;14.242;2022-09-21T04:53:16;4.82;;;2.60;;
39896;SDS011;25567;48.276;14.242;2022-09-21T04:55:43;7.53;;;2.50;;
39896;SDS011;25567;48.276;14.242;2022-09-21T04:58:11;3.35;;;2.05;;
39896;SDS011;25567;48.276;14.242;2022-09-21T05:00:37;4.75;;;2.22;;
39896;SDS011;25567;48.276;14.242;2022-09-21T05:03:04;6.43;;;2.55;;
39896;SDS011;25567;48.276;14.242;2022-09-21T05:05:31;11.77;;;2.80;;
39896;SDS011;25567;48.276;14.242;2022-09-21T05:07:58;5.25;;;2.85;;
39896;SDS011;25567;48.276;14.242;2022-09-21T05:10:24;5.63;;;2.85;;
39896;SDS011;25567;48.276;14.242;2022-09-21T05:12:51;5.40;;;3.05;;
39896;SDS011;25567;48.276;14.242;2022-09-21T05:15:18;11.02;;;3.03;;
39896;SDS011;25567;48.276;14.242;2022-09-21T05:17:45;5.13;;;2.40;;
39896;SDS011;25567;48.276;14.242;2022-09-21T05:20:15;4.95;;;2.00;;
39896;SDS011;25567;48.276;14.242;2022-09-21T05:22:42;5.63;;;1.90;;
39896;SDS011;25567;48.276;14.242;2022-09-21T05:25:08;3.28;;;1.80;;
39896;SDS011;25567;48.276;14.242;2022-09-21T05:27:35;4.35;;;1.83;;
39896;SDS011;25567;48.276;14.242;2022-09-21T05:30:02;4.57;;;2.15;;
39896;SDS011;25567;48.276;14.242;2022-09-21T05:33:02;12.30;;;2.00;;
39896;SDS011;25567;48.276;14.242;2022-09-21T05:38:06;5.45;;;2.17;;
39896;SDS011;25567;48.276;14.242;2022-09-21T05:40:39;8.43;;;2.33;;
39896;SDS011;25567;48.276;14.242;2022-09-21T05:43:06;4.60;;;2.28;;
39896;SDS011;25567;48.276;14.242;2022-09-21T05:45:34;5.28;;;2.33;;
39896;SDS011;25567;48.276;14.242;2022-09-21T05:58:37;5.05;;;2.78;;
39896;SDS011;25567;48.276;14.242;2022-09-21T06:01:17;5.60;;;3.25;;
39896;SDS011;25567;48.276;14.242;2022-09-21T06:03:54;5.70;;;2.60;;
39896;SDS011;25567;48.276;14.242;2022-09-21T06:06:22;7.07;;;3.20;;
39896;SDS011;25567;48.276;14.242;2022-09-21T06:08:49;9.32;;;2.28;;
39896;SDS011;25567;48.276;14.242;2022-09-21T06:11:16;5.70;;;2.00;;
39896;SDS011;25567;48.276;14.242;2022-09-21T06:13:43;8.85;;;2.30;;
39896;SDS011;25567;48.276;14.242;2022-09-21T06:16:09;5.30;;;2.50;;
39896;SDS011;25567;48.276;14.242;2022-09-21T06:18:37;4.60;;;2.33;;
39896;SDS011;25567;48.276;14.242;2022-09-21T06:21:05;6.95;;;2.53;;
39896;SDS011;25567;48.276;14.242;2022-09-21T06:23:33;4.53;;;2.65;;
39896;SDS011;25567;48.276;14.242;2022-09-21T06:26:00;8.25;;;2.72;;
39896;SDS011;25567;48.276;14.242;2022-09-21T06:28:27;12.45;;;3.17;;
39896;SDS011;25567;48.276;14.242;2022-09-21T06:30:55;7.70;;;2.97;;
39896;SDS011;25567;48.276;14.242;2022-09-21T06:33:23;5.60;;;3.25;;
39896;SDS011;25567;48.276;14.242;2022-09-21T06:35:58;8.43;;;3.08;;
39896;SDS011;25567;48.276;14.242;2022-09-21T06:38:26;6.78;;;3.35;;
39896;SDS011;25567;48.276;14.242;2022-09-21T06:40:53;13.38;;;3.40;;
39896;SDS011;25567;48.276;14.242;2022-09-21T06:43:20;16.58;;;5.35;;
39896;SDS011;25567;48.276;14.242;2022-09-21T06:45:55;8.13;;;3.20;;
39896;SDS011;25567;48.276;14.242;2022-09-21T06:48:23;5.65;;;2.67;;
39896;SDS011;25567;48.276;14.242;2022-09-21T06:50:55;7.78;;;4.20;;
39896;SDS011;25567;48.276;14.242;2022-09-21T06:53:25;12.38;;;5.65;;
39896;SDS011;25567;48.276;14.242;2022-09-21T06:55:52;13.98;;;6.25;;
39896;SDS011;25567;48.276;14.242;2022-09-21T06:58:19;17.13;;;7.35;;
39896;SDS011;25567;48.276;14.242;2022-09-21T07:00:45;12.77;;;6.63;;
39896;SDS011;25567;48.276;14.242;2022-09-21T07:03:12;17.50;;;7.60;;
39896;SDS011;25567;48.276;14.242;2022-09-21T07:05:39;16.10;;;7.97;;
39896;SDS011;25567;48.276;14.242;2022-09-21T07:08:05;13.43;;;7.05;;
39896;SDS011;25567;48.276;14.242;2022-09-21T07:10:52;13.70;;;6.18;;
39896;SDS011;25567;48.276;14.242;2022-09-21T07:13:19;15.98;;;7.07;;
39896;SDS011;25567;48.276;14.242;2022-09-21T07:15:45;10.55;;;6.35;;
39896;SDS011;25567;48.276;14.242;2022-09-21T07:18:18;12.63;;;7.03;;
39896;SDS011;25567;48.276;14.242;2022-09-21T07:20:44;9.65;;;5.90;;
39896;SDS011;25567;48.276;14.242;2022-09-21T07:23:15;10.40;;;5.13;;
39896;SDS011;25567;48.276;14.242;2022-09-21T07:25:43;7.15;;;5.03;;
39896;SDS011;25567;48.276;14.242;2022-09-21T07:28:14;8.48;;;5.13;;
39896;SDS011;25567;48.276;14.242;2022-09-21T07:30:41;8.73;;;5.28;;
39896;SDS011;25567;48.276;14.242;2022-09-21T07:33:08;9.15;;;5.90;;
39896;SDS011;25567;48.276;14.242;2022-09-21T07:35:35;8.10;;;5.05;;
39896;SDS011;25567;48.276;14.242;2022-09-21T07:38:03;10.43;;;5.15;;
39896;SDS011;25567;48.276;14.242;2022-09-21T07:40:31;8.55;;;5.15;;
39896;SDS011;25567;48.276;14.242;2022-09-21T07:42:59;6.72;;;5.00;;
39896;SDS011;25567;48.276;14.242;2022-09-21T07:45:28;7.68;;;4.50;;
39896;SDS011;25567;48.276;14.242;2022-09-21T07:48:03;6.75;;;4.72;;
39896;SDS011;25567;48.276;14.242;2022-09-21T07:50:31;13.20;;;6.80;;
39896;SDS011;25567;48.276;14.242;2022-09-21T07:53:00;12.13;;;6.35;;
39896;SDS011;25567;48.276;14.242;2022-09-21T07:55:27;13.05;;;7.13;;
39896;SDS011;25567;48.276;14.242;2022-09-21T07:57:54;9.05;;;4.85;;
39896;SDS011;25567;48.276;14.242;2022-09-21T08:00:36;11.95;;;5.05;;
39896;SDS011;25567;48.276;14.242;2022-09-21T08:03:04;16.80;;;7.85;;
39896;SDS011;25567;48.276;14.242;2022-09-21T08:05:31;10.52;;;5.40;;
39896;SDS011;25567;48.276;14.242;2022-09-21T08:07:58;16.23;;;7.47;;
39896;SDS011;25567;48.276;14.242;2022-09-21T08:10:25;21.60;;;8.95;;
39896;SDS011;25567;48.276;14.242;2022-09-21T08:12:55;23.75;;;10.23;;
39896;SDS011;25567;48.276;14.242;2022-09-21T08:15:22;19.77;;;9.55;;
39896;SDS011;25567;48.276;14.242;2022-09-21T08:20:35;17.48;;;9.20;;
39896;SDS011;25567;48.276;14.242;2022-09-21T08:23:02;17.38;;;9.15;;
39896;SDS011;25567;48.276;14.242;2022-09-21T08:25:29;20.35;;;11.10;;
39896;SDS011;25567;48.276;14.242;2022-09-21T08:27:56;26.35;;;11.48;;
39896;SDS011;25567;48.276;14.242;2022-09-21T08:30:23;18.58;;;10.38;;
39896;SDS011;25567;48.276;14.242;2022-09-21T08:32:53;34.30;;;13.10;;
39896;SDS011;25567;48.276;14.242;2022-09-21T08:35:20;23.85;;;12.63;;
39896;SDS011;25567;48.276;14.242;2022-09-21T08:37:47;21.33;;;11.75;;
39896;SDS011;25567;48.276;14.242;2022-09-21T08:40:16;22.98;;;11.15;;
39896;SDS011;25567;48.276;14.242;2022-09-21T08:42:49;23.05;;;11.00;;
39896;SDS011;25567;48.276;14.242;2022-09-21T08:45:31;18.95;;;9.90;;
39896;SDS011;25567;48.276;14.242;2022-09-21T08:48:01;19.92;;;9.77;;
39896;SDS011;25567;48.276;14.242;2022-09-21T08:50:33;20.95;;;10.00;;
39896;SDS011;25567;48.276;14.242;2022-09-21T08:53:06;19.42;;;9.30;;
39896;SDS011;25567;48.276;14.242;2022-09-21T08:55:38;18.05;;;10.55;;
39896;SDS011;25567;48.276;14.242;2022-09-21T08:58:10;21.85;;;10.48;;
39896;SDS011;25567;48.276;14.242;2022-09-21T09:00:45;20.77;;;9.65;;
39896;SDS011;25567;48.276;14.242;2022-09-21T09:03:25;17.02;;;7.88;;
39896;SDS011;25567;48.276;14.242;2022-09-21T09:06:13;19.58;;;8.10;;
39896;SDS011;25567;48.276;14.242;2022-09-21T09:08:53;13.40;;;6.68;;
39896;SDS011;25567;48.276;14.242;2022-09-21T09:11:39;14.38;;;6.93;;
39896;SDS011;25567;48.276;14.242;2022-09-21T09:19:42;14.70;;;7.22;;
39896;SDS011;25567;48.276;14.242;2022-09-21T09:22:20;11.00;;;6.77;;
39896;SDS011;25567;48.276;14.242;2022-09-21T09:24:55;14.48;;;5.70;;
39896;SDS011;25567;48.276;14.242;2022-09-21T09:27:27;14.30;;;6.25;;
39896;SDS011;25567;48.276;14.242;2022-09-21T09:32:39;16.30;;;5.32;;
39896;SDS011;25567;48.276;14.242;2022-09-21T09:37:49;8.45;;;4.78;;
39896;SDS011;25567;48.276;14.242;2022-09-21T09:40:22;8.55;;;5.22;;
39896;SDS011;25567;48.276;14.242;2022-09-21T09:43:08;11.45;;;6.07;;
39896;SDS011;25567;48.276;14.242;2022-09-21T09:48:33;13.05;;;5.20;;
39896;SDS011;25567;48.276;14.242;2022-09-21T09:51:19;13.57;;;5.55;;
39896;SDS011;25567;48.276;14.242;2022-09-21T09:53:46;8.73;;;5.32;;
39896;SDS011;25567;48.276;14.242;2022-09-21T09:56:13;10.55;;;5.05;;
39896;SDS011;25567;48.276;14.242;2022-09-21T10:04:04;8.57;;;5.13;;
39896;SDS011;25567;48.276;14.242;2022-09-21T10:06:33;6.97;;;3.35;;
39896;SDS011;25567;48.276;14.242;2022-09-21T10:09:00;7.93;;;4.10;;
39896;SDS011;25567;48.276;14.242;2022-09-21T10:11:35;5.65;;;3.15;;
39896;SDS011;25567;48.276;14.242;2022-09-21T10:14:07;8.75;;;3.70;;
39896;SDS011;25567;48.276;14.242;2022-09-21T10:16:39;7.47;;;3.80;;
39896;SDS011;25567;48.276;14.242;2022-09-21T10:19:12;10.20;;;3.88;;
39896;SDS011;25567;48.276;14.242;2022-09-21T10:21:42;6.78;;;4.18;;
39896;SDS011;25567;48.276;14.242;2022-09-21T10:24:19;6.53;;;4.00;;
39896;SDS011;25567;48.276;14.242;2022-09-21T10:26:50;8.07;;;4.30;;
39896;SDS011;25567;48.276;14.242;2022-09-21T10:31:56;11.20;;;4.22;;
39896;SDS011;25567;48.276;14.242;2022-09-21T10:34:27;7.47;;;3.65;;
39896;SDS011;25567;48.276;14.242;2022-09-21T10:36:58;8.60;;;3.90;;
39896;SDS011;25567;48.276;14.242;2022-09-21T10:39:27;7.97;;;3.70;;
39896;SDS011;25567;48.276;14.242;2022-09-21T10:42:01;8.23;;;3.97;;
39896;SDS011;25567;48.276;14.242;2022-09-21T10:44:38;11.05;;;3.83;;
39896;SDS011;25567;48.276;14.242;2022-09-21T10:49:50;7.25;;;3.15;;
39896;SDS011;25567;48.276;14.242;2022-09-21T10:52:20;7.25;;;3.55;;
39896;SDS011;25567;48.276;14.242;2022-09-21T10:54:49;7.28;;;3.08;;
39896;SDS011;25567;48.276;14.242;2022-09-21T10:57:20;4.22;;;2.85;;
39896;SDS011;25567;48.276;14.242;2022-09-21T10:59:50;8.00;;;3.15;;
39896;SDS011;25567;48.276;14.242;2022-09-21T11:07:37;5.95;;;2.70;;
39896;SDS011;25567;48.276;14.242;2022-09-21T11:10:12;5.82;;;3.13;;
39896;SDS011;25567;48.276;14.242;2022-09-21T11:13:52;7.97;;;3.35;;
39896;SDS011;25567;48.276;14.242;2022-09-21T11:15:48;5.93;;;2.60;;
39896;SDS011;25567;48.276;14.242;2022-09-21T11:23:38;3.72;;;2.17;;
39896;SDS011;25567;48.276;14.242;2022-09-21T11:26:24;5.90;;;2.53;;
39896;SDS011;25567;48.276;14.242;2022-09-21T11:42:25;4.20;;;2.45;;
39896;SDS011;25567;48.276;14.242;2022-09-21T11:44:57;8.63;;;2.65;;
39896;SDS011;25567;48.276;14.242;2022-09-21T11:58:34;4.03;;;2.10;;
39896;SDS011;25567;48.276;14.242;2022-09-21T12:06:39;4.85;;;1.40;;
39896;SDS011;25567;48.276;14.242;2022-09-21T12:12:08;2.50;;;1.50;;
39896;SDS011;25567;48.276;14.242;2022-09-21T12:22:48;2.83;;;1.33;;
39896;SDS011;25567;48.276;14.242;2022-09-21T12:25:19;3.28;;;1.55;;
39896;SDS011;25567;48.276;14.242;2022-09-21T12:27:49;3.33;;;0.93;;
39896;SDS011;25567;48.276;14.242;2022-09-21T12:30:20;3.42;;;1.10;;
39896;SDS011;25567;48.276;14.242;2022-09-21T12:35:20;1.83;;;0.88;;
39896;SDS011;25567;48.276;14.242;2022-09-21T12:48:51;4.30;;;1.40;;
39896;SDS011;25567;48.276;14.242;2022-09-21T12:51:22;2.25;;;1.13;;
39896;SDS011;25567;48.276;14.242;2022-09-21T12:53:55;4.13;;;2.03;;
39896;SDS011;25567;48.276;14.242;2022-09-21T13:01:49;2.78;;;1.52;;
39896;SDS011;25567;48.276;14.242;2022-09-21T13:09:59;1.70;;;1.30;;
39896;SDS011;25567;48.276;14.242;2022-09-21T13:12:37;4.65;;;1.40;;
39896;SDS011;25567;48.276;14.242;2022-09-21T13:20:43;3.25;;;1.25;;
39896;SDS011;25567;48.276;14.242;2022-09-21T13:23:15;6.35;;;2.88;;
39896;SDS011;25567;48.276;14.242;2022-09-21T13:25:46;6.93;;;2.22;;
39896;SDS011;25567;48.276;14.242;2022-09-21T13:30:46;2.33;;;1.38;;
39896;SDS011;25567;48.276;14.242;2022-09-21T13:39:43;5.13;;;2.20;;
39896;SDS011;25567;48.276;14.242;2022-09-21T13:44:58;4.00;;;1.63;;
39896;SDS011;25567;48.276;14.242;2022-09-21T13:47:34;2.88;;;1.52;;
39896;SDS011;25567;48.276;14.242;2022-09-21T13:51:06;1.48;;;1.00;;
39896;SDS011;25567;48.276;14.242;2022-09-21T13:52:55;1.90;;;1.00;;
39896;SDS011;25567;48.276;14.242;2022-09-21T13:55:32;18.08;;;8.40;;
39896;SDS011;25567;48.276;14.242;2022-09-21T14:00:57;3.38;;;1.30;;
39896;SDS011;25567;48.276;14.242;2022-09-21T14:03:33;1.95;;;1.17;;
39896;SDS011;25567;48.276;14.242;2022-09-21T14:06:07;2.23;;;1.17;;
39896;SDS011;25567;48.276;14.242;2022-09-21T14:08:39;8.50;;;1.33;;
39896;SDS011;25567;48.276;14.242;2022-09-21T14:11:28;3.65;;;1.40;;
39896;SDS011;25567;48.276;14.242;2022-09-21T14:16:48;4.03;;;1.00;;
39896;SDS011;25567;48.276;14.242;2022-09-21T14:24:46;3.00;;;0.90;;
39896;SDS011;25567;48.276;14.242;2022-09-21T14:27:21;2.78;;;1.02;;
39896;SDS011;25567;48.276;14.242;2022-09-21T14:29:55;4.22;;;1.55;;
39896;SDS011;25567;48.276;14.242;2022-09-21T14:32:34;4.78;;;0.95;;
39896;SDS011;25567;48.276;14.242;2022-09-21T14:35:10;1.60;;;0.98;;
39896;SDS011;25567;48.276;14.242;2022-09-21T14:37:45;4.43;;;1.00;;
39896;SDS011;25567;48.276;14.242;2022-09-21T14:40:18;7.17;;;3.33;;
39896;SDS011;25567;48.276;14.242;2022-09-21T14:42:50;4.13;;;1.48;;
39896;SDS011;25567;48.276;14.242;2022-09-21T14:45:23;2.15;;;1.00;;
39896;SDS011;25567;48.276;14.242;2022-09-21T14:48:04;2.90;;;0.75;;
39896;SDS011;25567;48.276;14.242;2022-09-21T14:58:47;2.45;;;1.02;;
39896;SDS011;25567;48.276;14.242;2022-09-21T15:13:14;3.63;;;0.98;;
39896;SDS011;25567;48.276;14.242;2022-09-21T15:16:47;3.38;;;0.73;;
39896;SDS011;25567;48.276;14.242;2022-09-21T15:18:48;2.20;;;0.90;;
39896;SDS011;25567;48.276;14.242;2022-09-21T15:21:19;2.97;;;0.82;;
39896;SDS011;25567;48.276;14.242;2022-09-21T15:23:51;2.58;;;1.25;;
39896;SDS011;25567;48.276;14.242;2022-09-21T15:26:20;4.32;;;1.40;;
39896;SDS011;25567;48.276;14.242;2022-09-21T15:28:53;3.67;;;1.27;;
39896;SDS011;25567;48.276;14.242;2022-09-21T15:31:36;2.63;;;1.25;;
39896;SDS011;25567;48.276;14.242;2022-09-21T15:34:05;3.10;;;1.20;;
39896;SDS011;25567;48.276;14.242;2022-09-21T15:36:35;3.90;;;1.25;;
39896;SDS011;25567;48.276;14.242;2022-09-21T15:39:03;2.75;;;0.90;;
39896;SDS011;25567;48.276;14.242;2022-09-21T15:44:18;2.13;;;0.98;;
39896;SDS011;25567;48.276;14.242;2022-09-21T15:46:49;2.85;;;1.10;;
39896;SDS011;25567;48.276;14.242;2022-09-21T15:49:18;2.00;;;1.00;;
39896;SDS011;25567;48.276;14.242;2022-09-21T15:54:40;1.50;;;1.00;;
39896;SDS011;25567;48.276;14.242;2022-09-21T16:00:04;4.18;;;1.17;;
39896;SDS011;25567;48.276;14.242;2022-09-21T16:02:53;2.40;;;0.95;;
39896;SDS011;25567;48.276;14.242;2022-09-21T16:05:24;2.15;;;0.98;;
39896;SDS011;25567;48.276;14.242;2022-09-21T16:08:03;4.70;;;1.20;;
39896;SDS011;25567;48.276;14.242;2022-09-21T16:12:59;3.38;;;1.25;;
39896;SDS011;25567;48.276;14.242;2022-09-21T16:16:06;4.32;;;0.70;;
39896;SDS011;25567;48.276;14.242;2022-09-21T16:23:48;9.15;;;4.40;;
39896;SDS011;25567;48.276;14.242;2022-09-21T16:26:19;8.18;;;4.75;;
39896;SDS011;25567;48.276;14.242;2022-09-21T16:28:48;1.52;;;1.00;;
39896;SDS011;25567;48.276;14.242;2022-09-21T16:38:47;2.33;;;1.77;;
39896;SDS011;25567;48.276;14.242;2022-09-21T16:41:15;17.88;;;7.05;;
39896;SDS011;25567;48.276;14.242;2022-09-21T16:43:42;22.05;;;10.15;;
39896;SDS011;25567;48.276;14.242;2022-09-21T16:46:10;14.75;;;6.03;;
39896;SDS011;25567;48.276;14.242;2022-09-21T16:48:37;10.68;;;5.35;;
39896;SDS011;25567;48.276;14.242;2022-09-21T16:51:10;10.07;;;4.95;;
39896;SDS011;25567;48.276;14.242;2022-09-21T16:53:37;11.48;;;5.28;;
39896;SDS011;25567;48.276;14.242;2022-09-21T16:56:04;35.35;;;13.90;;
39896;SDS011;25567;48.276;14.242;2022-09-21T16:58:32;17.20;;;7.28;;
39896;SDS011;25567;48.276;14.242;2022-09-21T17:00:58;6.22;;;3.42;;
39896;SDS011;25567;48.276;14.242;2022-09-21T17:03:26;12.70;;;6.07;;
39896;SDS011;25567;48.276;14.242;2022-09-21T17:05:54;6.88;;;3.33;;
39896;SDS011;25567;48.276;14.242;2022-09-21T17:08:22;8.07;;;2.55;;
39896;SDS011;25567;48.276;14.242;2022-09-21T17:10:49;9.30;;;2.97;;
39896;SDS011;25567;48.276;14.242;2022-09-21T17:13:16;2.85;;;2.08;;
39896;SDS011;25567;48.276;14.242;2022-09-21T17:15:44;3.83;;;2.35;;
39896;SDS011;25567;48.276;14.242;2022-09-21T17:18:13;2.72;;;1.88;;
39896;SDS011;25567;48.276;14.242;2022-09-21T17:20:41;2.53;;;1.65;;
39896;SDS011;25567;48.276;14.242;2022-09-21T17:23:09;4.18;;;1.50;;
39896;SDS011;25567;48.276;14.242;2022-09-21T17:25:39;3.45;;;1.50;;
39896;SDS011;25567;48.276;14.242;2022-09-21T17:28:14;3.88;;;1.73;;
39896;SDS011;25567;48.276;14.242;2022-09-21T17:30:48;4.45;;;1.40;;
39896;SDS011;25567;48.276;14.242;2022-09-21T17:33:15;3.45;;;1.33;;
39896;SDS011;25567;48.276;14.242;2022-09-21T17:35:43;2.85;;;1.75;;
39896;SDS011;25567;48.276;14.242;2022-09-21T17:38:09;3.47;;;1.10;;
39896;SDS011;25567;48.276;14.242;2022-09-21T17:40:39;0.80;;;0.50;;
39896;SDS011;25567;48.276;14.242;2022-09-21T17:46:06;2.38;;;0.90;;
39896;SDS011;25567;48.276;14.242;2022-09-21T17:48:41;3.05;;;0.85;;
39896;SDS011;25567;48.276;14.242;2022-09-21T17:51:08;2.95;;;1.17;;
39896;SDS011;25567;48.276;14.242;2022-09-21T17:53:35;5.30;;;1.60;;
39896;SDS011;25567;48.276;14.242;2022-09-21T17:59:00;4.05;;;2.50;;
39896;SDS011;25567;48.276;14.242;2022-09-21T18:04:00;11.95;;;6.00;;
39896;SDS011;25567;48.276;14.242;2022-09-21T18:06:27;11.15;;;4.97;;
39896;SDS011;25567;48.276;14.242;2022-09-21T18:08:54;14.70;;;5.95;;
39896;SDS011;25567;48.276;14.242;2022-09-21T18:16:44;7.40;;;3.53;;
39896;SDS011;25567;48.276;14.242;2022-09-21T18:22:34;4.88;;;1.88;;
39896;SDS011;25567;48.276;14.242;2022-09-21T18:25:22;5.45;;;2.10;;
39896;SDS011;25567;48.276;14.242;2022-09-21T18:27:53;4.07;;;2.50;;
39896;SDS011;25567;48.276;14.242;2022-09-21T18:30:24;4.97;;;2.80;;
39896;SDS011;25567;48.276;14.242;2022-09-21T18:35:45;5.95;;;1.92;;
39896;SDS011;25567;48.276;14.242;2022-09-21T18:38:25;4.88;;;1.80;;
39896;SDS011;25567;48.276;14.242;2022-09-21T18:46:31;5.53;;;2.70;;
39896;SDS011;25567;48.276;14.242;2022-09-21T18:51:30;3.95;;;0.95;;
39896;SDS011;25567;48.276;14.242;2022-09-21T18:54:05;3.85;;;1.42;;